sensor_id;sensor_type;location;lat;lon;timestamp;P1;durP1;ratioP1;P2;durP2;ratioP2
67508;SDS011;54354;44.724;11.284;2023-02-28T00:01:19;12.85;;;6.97;;
67508;SDS011;54354;44.724;11.284;2023-02-28T00:03:46;8.80;;;6.35;;
67508;SDS011;54354;44.724;11.284;2023-02-28T00:06:11;12.75;;;6.65;;
67508;SDS011;54354;44.724;11.284;2023-02-28T00:08:37;13.00;;;6.60;;
67508;SDS011;54354;44.724;11.284;2023-02-28T00:11:08;9.70;;;6.70;;
67508;SDS011;54354;44.724;11.284;2023-02-28T00:13:36;9.98;;;6.63;;
67508;SDS011;54354;44.724;11.284;2023-02-28T00:16:05;14.93;;;6.72;;
67508;SDS011;54354;44.724;11.284;2023-02-28T00:18:34;11.32;;;6.88;;
67508;SDS011;54354;44.724;11.284;2023-02-28T00:21:00;11.05;;;6.43;;
67508;SDS011;54354;44.724;11.284;2023-02-28T00:23:26;12.52;;;6.80;;
67508;SDS011;54354;44.724;11.284;2023-02-28T00:25:51;10.30;;;6.50;;
67508;SDS011;54354;44.724;11.284;2023-02-28T00:28:17;8.90;;;6.43;;
67508;SDS011;54354;44.724;11.284;2023-02-28T00:30:43;11.82;;;6.85;;
67508;SDS011;54354;44.724;11.284;2023-02-28T00:33:09;11.73;;;7.18;;
67508;SDS011;54354;44.724;11.284;2023-02-28T00:35:34;9.65;;;6.65;;
67508;SDS011;54354;44.724;11.284;2023-02-28T00:38:00;10.82;;;7.05;;
67508;SDS011;54354;44.724;11.284;2023-02-28T00:40:26;12.02;;;6.70;;
67508;SDS011;54354;44.724;11.284;2023-02-28T00:42:52;9.55;;;6.55;;
67508;SDS011;54354;44.724;11.284;2023-02-28T00:45:17;10.82;;;6.40;;
67508;SDS011;54354;44.724;11.284;2023-02-28T00:47:43;8.90;;;6.32;;
67508;SDS011;54354;44.724;11.284;2023-02-28T00:50:09;8.80;;;6.55;;
67508;SDS011;54354;44.724;11.284;2023-02-28T00:52:35;6.47;;;5.70;;
67508;SDS011;54354;44.724;11.284;2023-02-28T00:55:01;8.68;;;5.97;;
67508;SDS011;54354;44.724;11.284;2023-02-28T00:57:26;9.88;;;7.00;;
67508;SDS011;54354;44.724;11.284;2023-02-28T00:59:52;7.55;;;5.78;;
67508;SDS011;54354;44.724;11.284;2023-02-28T01:02:20;10.23;;;6.20;;
67508;SDS011;54354;44.724;11.284;2023-02-28T01:04:47;12.70;;;6.90;;
67508;SDS011;54354;44.724;11.284;2023-02-28T01:07:13;7.60;;;5.88;;
67508;SDS011;54354;44.724;11.284;2023-02-28T01:09:39;7.97;;;5.75;;
67508;SDS011;54354;44.724;11.284;2023-02-28T01:12:06;8.10;;;5.78;;
67508;SDS011;54354;44.724;11.284;2023-02-28T01:14:32;8.45;;;5.60;;
67508;SDS011;54354;44.724;11.284;2023-02-28T01:16:58;11.70;;;5.95;;
67508;SDS011;54354;44.724;11.284;2023-02-28T01:19:24;9.25;;;5.68;;
67508;SDS011;54354;44.724;11.284;2023-02-28T01:21:49;12.23;;;5.53;;
67508;SDS011;54354;44.724;11.284;2023-02-28T01:24:15;7.80;;;5.95;;
67508;SDS011;54354;44.724;11.284;2023-02-28T01:26:40;9.40;;;5.43;;
67508;SDS011;54354;44.724;11.284;2023-02-28T01:29:06;11.88;;;6.15;;
67508;SDS011;54354;44.724;11.284;2023-02-28T01:31:32;9.30;;;5.85;;
67508;SDS011;54354;44.724;11.284;2023-02-28T01:33:58;8.80;;;5.75;;
67508;SDS011;54354;44.724;11.284;2023-02-28T01:36:27;9.85;;;5.43;;
67508;SDS011;54354;44.724;11.284;2023-02-28T01:38:54;9.13;;;5.75;;
67508;SDS011;54354;44.724;11.284;2023-02-28T01:41:25;9.20;;;6.10;;
67508;SDS011;54354;44.724;11.284;2023-02-28T01:46:23;9.93;;;5.68;;
67508;SDS011;54354;44.724;11.284;2023-02-28T01:49:22;9.70;;;5.93;;
67508;SDS011;54354;44.724;11.284;2023-02-28T01:54:26;9.40;;;6.15;;
67508;SDS011;54354;44.724;11.284;2023-02-28T01:56:55;12.38;;;6.07;;
67508;SDS011;54354;44.724;11.284;2023-02-28T01:59:29;11.55;;;5.97;;
67508;SDS011;54354;44.724;11.284;2023-02-28T02:01:56;8.90;;;6.03;;
67508;SDS011;54354;44.724;11.284;2023-02-28T02:04:23;6.90;;;5.70;;
67508;SDS011;54354;44.724;11.284;2023-02-28T02:09:18;8.70;;;5.80;;
67508;SDS011;54354;44.724;11.284;2023-02-28T02:11:44;9.52;;;6.28;;
67508;SDS011;54354;44.724;11.284;2023-02-28T02:17:05;9.55;;;6.07;;
67508;SDS011;54354;44.724;11.284;2023-02-28T02:25:42;9.57;;;6.43;;
67508;SDS011;54354;44.724;11.284;2023-02-28T02:36:51;13.50;;;6.63;;
67508;SDS011;54354;44.724;11.284;2023-02-28T02:42:09;12.00;;;6.85;;
67508;SDS011;54354;44.724;11.284;2023-02-28T02:44:42;11.23;;;7.35;;
67508;SDS011;54354;44.724;11.284;2023-02-28T02:47:13;10.48;;;6.72;;
67508;SDS011;54354;44.724;11.284;2023-02-28T02:49:52;10.55;;;6.85;;
67508;SDS011;54354;44.724;11.284;2023-02-28T02:52:23;12.43;;;6.63;;
67508;SDS011;54354;44.724;11.284;2023-02-28T02:54:55;11.70;;;7.18;;
67508;SDS011;54354;44.724;11.284;2023-02-28T02:57:27;9.00;;;6.90;;
67508;SDS011;54354;44.724;11.284;2023-02-28T02:59:58;10.15;;;6.72;;
67508;SDS011;54354;44.724;11.284;2023-02-28T03:02:26;9.02;;;7.20;;
67508;SDS011;54354;44.724;11.284;2023-02-28T03:04:59;9.20;;;6.68;;
67508;SDS011;54354;44.724;11.284;2023-02-28T03:07:28;9.60;;;6.85;;
67508;SDS011;54354;44.724;11.284;2023-02-28T03:09:54;9.20;;;6.88;;
67508;SDS011;54354;44.724;11.284;2023-02-28T03:12:22;9.63;;;6.60;;
67508;SDS011;54354;44.724;11.284;2023-02-28T03:20:07;8.40;;;6.70;;
67508;SDS011;54354;44.724;11.284;2023-02-28T03:25:37;9.35;;;6.90;;
67508;SDS011;54354;44.724;11.284;2023-02-28T03:31:20;10.13;;;7.68;;
67508;SDS011;54354;44.724;11.284;2023-02-28T03:33:48;11.98;;;7.50;;
67508;SDS011;54354;44.724;11.284;2023-02-28T03:36:25;15.10;;;8.00;;
67508;SDS011;54354;44.724;11.284;2023-02-28T03:39:02;10.68;;;7.28;;
67508;SDS011;54354;44.724;11.284;2023-02-28T03:44:19;11.48;;;7.60;;
67508;SDS011;54354;44.724;11.284;2023-02-28T03:47:00;10.82;;;7.20;;
67508;SDS011;54354;44.724;11.284;2023-02-28T03:52:23;10.52;;;7.60;;
67508;SDS011;54354;44.724;11.284;2023-02-28T03:54:56;9.15;;;7.65;;
67508;SDS011;54354;44.724;11.284;2023-02-28T03:57:37;9.57;;;6.95;;
67508;SDS011;54354;44.724;11.284;2023-02-28T04:00:13;11.25;;;7.60;;
67508;SDS011;54354;44.724;11.284;2023-02-28T04:02:41;8.80;;;7.00;;
67508;SDS011;54354;44.724;11.284;2023-02-28T04:05:07;10.82;;;7.85;;
67508;SDS011;54354;44.724;11.284;2023-02-28T04:07:32;11.73;;;7.78;;
67508;SDS011;54354;44.724;11.284;2023-02-28T04:09:58;11.25;;;8.07;;
67508;SDS011;54354;44.724;11.284;2023-02-28T04:12:24;11.00;;;7.90;;
67508;SDS011;54354;44.724;11.284;2023-02-28T04:14:50;10.77;;;8.07;;
67508;SDS011;54354;44.724;11.284;2023-02-28T04:17:16;12.02;;;8.05;;
67508;SDS011;54354;44.724;11.284;2023-02-28T04:19:42;12.55;;;8.35;;
67508;SDS011;54354;44.724;11.284;2023-02-28T04:22:08;12.82;;;7.53;;
67508;SDS011;54354;44.724;11.284;2023-02-28T04:24:34;11.45;;;7.90;;
67508;SDS011;54354;44.724;11.284;2023-02-28T04:27:00;13.45;;;8.25;;
67508;SDS011;54354;44.724;11.284;2023-02-28T04:29:27;10.52;;;8.02;;
67508;SDS011;54354;44.724;11.284;2023-02-28T04:31:55;11.10;;;8.18;;
67508;SDS011;54354;44.724;11.284;2023-02-28T04:34:24;11.30;;;8.02;;
67508;SDS011;54354;44.724;11.284;2023-02-28T04:36:55;11.38;;;8.32;;
67508;SDS011;54354;44.724;11.284;2023-02-28T04:39:21;11.30;;;8.23;;
67508;SDS011;54354;44.724;11.284;2023-02-28T04:41:48;11.93;;;8.45;;
67508;SDS011;54354;44.724;11.284;2023-02-28T04:44:14;13.15;;;8.63;;
67508;SDS011;54354;44.724;11.284;2023-02-28T04:46:41;11.95;;;8.52;;
67508;SDS011;54354;44.724;11.284;2023-02-28T04:49:08;13.95;;;8.65;;
67508;SDS011;54354;44.724;11.284;2023-02-28T04:51:35;10.45;;;8.30;;
67508;SDS011;54354;44.724;11.284;2023-02-28T04:54:01;11.00;;;8.07;;
67508;SDS011;54354;44.724;11.284;2023-02-28T04:56:26;13.27;;;8.18;;
67508;SDS011;54354;44.724;11.284;2023-02-28T04:58:52;12.93;;;8.10;;
67508;SDS011;54354;44.724;11.284;2023-02-28T05:01:22;10.45;;;8.15;;
67508;SDS011;54354;44.724;11.284;2023-02-28T05:03:56;11.68;;;8.48;;
67508;SDS011;54354;44.724;11.284;2023-02-28T05:06:23;13.10;;;8.43;;
67508;SDS011;54354;44.724;11.284;2023-02-28T05:08:50;11.35;;;8.05;;
67508;SDS011;54354;44.724;11.284;2023-02-28T05:11:20;11.27;;;8.05;;
67508;SDS011;54354;44.724;11.284;2023-02-28T05:13:49;9.35;;;8.20;;
67508;SDS011;54354;44.724;11.284;2023-02-28T05:16:15;11.77;;;8.07;;
67508;SDS011;54354;44.724;11.284;2023-02-28T05:18:42;11.90;;;8.27;;
67508;SDS011;54354;44.724;11.284;2023-02-28T05:21:22;11.65;;;8.25;;
67508;SDS011;54354;44.724;11.284;2023-02-28T05:23:50;9.80;;;8.50;;
67508;SDS011;54354;44.724;11.284;2023-02-28T05:26:16;9.35;;;8.10;;
67508;SDS011;54354;44.724;11.284;2023-02-28T05:28:41;12.10;;;8.25;;
67508;SDS011;54354;44.724;11.284;2023-02-28T05:31:07;11.27;;;8.50;;
67508;SDS011;54354;44.724;11.284;2023-02-28T05:33:36;12.88;;;8.23;;
67508;SDS011;54354;44.724;11.284;2023-02-28T05:36:02;13.38;;;8.80;;
67508;SDS011;54354;44.724;11.284;2023-02-28T05:38:27;12.40;;;8.68;;
67508;SDS011;54354;44.724;11.284;2023-02-28T05:40:53;12.80;;;8.70;;
67508;SDS011;54354;44.724;11.284;2023-02-28T05:43:18;13.88;;;8.93;;
67508;SDS011;54354;44.724;11.284;2023-02-28T05:45:44;10.23;;;8.18;;
67508;SDS011;54354;44.724;11.284;2023-02-28T05:48:09;13.82;;;8.55;;
67508;SDS011;54354;44.724;11.284;2023-02-28T05:50:35;13.13;;;9.00;;
67508;SDS011;54354;44.724;11.284;2023-02-28T05:53:01;10.98;;;8.98;;
67508;SDS011;54354;44.724;11.284;2023-02-28T05:55:27;10.52;;;8.38;;
67508;SDS011;54354;44.724;11.284;2023-02-28T05:57:52;11.18;;;8.60;;
67508;SDS011;54354;44.724;11.284;2023-02-28T06:00:18;10.43;;;8.77;;
67508;SDS011;54354;44.724;11.284;2023-02-28T06:02:44;10.98;;;8.77;;
67508;SDS011;54354;44.724;11.284;2023-02-28T06:05:13;10.07;;;8.68;;
67508;SDS011;54354;44.724;11.284;2023-02-28T06:07:43;12.02;;;9.55;;
67508;SDS011;54354;44.724;11.284;2023-02-28T06:10:10;10.82;;;8.65;;
67508;SDS011;54354;44.724;11.284;2023-02-28T06:12:36;11.48;;;9.48;;
67508;SDS011;54354;44.724;11.284;2023-02-28T06:15:02;13.98;;;8.57;;
67508;SDS011;54354;44.724;11.284;2023-02-28T06:17:28;11.10;;;8.52;;
67508;SDS011;54354;44.724;11.284;2023-02-28T06:19:54;12.88;;;8.57;;
67508;SDS011;54354;44.724;11.284;2023-02-28T06:22:20;13.77;;;9.13;;
67508;SDS011;54354;44.724;11.284;2023-02-28T06:24:46;12.30;;;8.68;;
67508;SDS011;54354;44.724;11.284;2023-02-28T06:27:11;10.05;;;9.05;;
67508;SDS011;54354;44.724;11.284;2023-02-28T06:29:37;10.20;;;8.63;;
67508;SDS011;54354;44.724;11.284;2023-02-28T06:32:04;10.63;;;8.82;;
67508;SDS011;54354;44.724;11.284;2023-02-28T06:34:30;11.95;;;8.38;;
67508;SDS011;54354;44.724;11.284;2023-02-28T06:36:56;11.98;;;8.43;;
67508;SDS011;54354;44.724;11.284;2023-02-28T06:39:22;9.93;;;8.70;;
67508;SDS011;54354;44.724;11.284;2023-02-28T06:41:47;9.50;;;8.45;;
67508;SDS011;54354;44.724;11.284;2023-02-28T06:44:16;12.70;;;8.48;;
67508;SDS011;54354;44.724;11.284;2023-02-28T06:46:43;11.93;;;9.10;;
67508;SDS011;54354;44.724;11.284;2023-02-28T06:49:09;11.23;;;9.18;;
67508;SDS011;54354;44.724;11.284;2023-02-28T06:51:37;13.82;;;9.05;;
67508;SDS011;54354;44.724;11.284;2023-02-28T06:54:05;11.85;;;9.32;;
67508;SDS011;54354;44.724;11.284;2023-02-28T06:56:34;10.10;;;9.02;;
67508;SDS011;54354;44.724;11.284;2023-02-28T06:59:00;10.38;;;8.70;;
67508;SDS011;54354;44.724;11.284;2023-02-28T07:01:25;14.15;;;9.00;;
67508;SDS011;54354;44.724;11.284;2023-02-28T07:03:53;13.30;;;9.15;;
67508;SDS011;54354;44.724;11.284;2023-02-28T07:06:19;12.38;;;8.50;;
67508;SDS011;54354;44.724;11.284;2023-02-28T07:08:47;12.88;;;8.63;;
67508;SDS011;54354;44.724;11.284;2023-02-28T07:11:14;12.43;;;9.30;;
67508;SDS011;54354;44.724;11.284;2023-02-28T07:13:39;11.57;;;8.68;;
67508;SDS011;54354;44.724;11.284;2023-02-28T07:16:06;12.27;;;8.75;;
67508;SDS011;54354;44.724;11.284;2023-02-28T07:18:34;11.38;;;8.48;;
67508;SDS011;54354;44.724;11.284;2023-02-28T07:21:01;13.80;;;8.68;;
67508;SDS011;54354;44.724;11.284;2023-02-28T07:23:28;11.25;;;8.70;;
67508;SDS011;54354;44.724;11.284;2023-02-28T07:25:53;10.95;;;9.25;;
67508;SDS011;54354;44.724;11.284;2023-02-28T07:28:19;13.82;;;10.10;;
67508;SDS011;54354;44.724;11.284;2023-02-28T07:30:44;15.60;;;9.88;;
67508;SDS011;54354;44.724;11.284;2023-02-28T07:33:10;11.50;;;9.32;;
67508;SDS011;54354;44.724;11.284;2023-02-28T07:35:35;13.65;;;9.38;;
67508;SDS011;54354;44.724;11.284;2023-02-28T07:38:01;11.50;;;9.02;;
67508;SDS011;54354;44.724;11.284;2023-02-28T07:40:28;11.88;;;9.25;;
67508;SDS011;54354;44.724;11.284;2023-02-28T07:42:53;15.93;;;10.00;;
67508;SDS011;54354;44.724;11.284;2023-02-28T07:45:19;12.20;;;8.95;;
67508;SDS011;54354;44.724;11.284;2023-02-28T07:47:44;13.20;;;9.80;;
67508;SDS011;54354;44.724;11.284;2023-02-28T07:50:11;13.05;;;9.52;;
67508;SDS011;54354;44.724;11.284;2023-02-28T07:52:38;12.43;;;9.60;;
67508;SDS011;54354;44.724;11.284;2023-02-28T07:55:05;12.45;;;9.52;;
67508;SDS011;54354;44.724;11.284;2023-02-28T07:57:31;14.13;;;9.60;;
67508;SDS011;54354;44.724;11.284;2023-02-28T07:59:57;13.70;;;9.35;;
67508;SDS011;54354;44.724;11.284;2023-02-28T08:02:23;16.65;;;9.77;;
67508;SDS011;54354;44.724;11.284;2023-02-28T08:04:48;14.48;;;9.10;;
67508;SDS011;54354;44.724;11.284;2023-02-28T08:07:14;16.00;;;9.90;;
67508;SDS011;54354;44.724;11.284;2023-02-28T08:09:41;16.02;;;9.82;;
67508;SDS011;54354;44.724;11.284;2023-02-28T08:12:07;13.77;;;9.65;;
67508;SDS011;54354;44.724;11.284;2023-02-28T08:14:34;14.23;;;9.68;;
67508;SDS011;54354;44.724;11.284;2023-02-28T08:17:00;12.68;;;9.93;;
67508;SDS011;54354;44.724;11.284;2023-02-28T08:19:25;15.05;;;10.13;;
67508;SDS011;54354;44.724;11.284;2023-02-28T08:21:51;13.25;;;9.63;;
67508;SDS011;54354;44.724;11.284;2023-02-28T08:24:16;16.08;;;10.43;;
67508;SDS011;54354;44.724;11.284;2023-02-28T08:26:42;15.98;;;9.65;;
67508;SDS011;54354;44.724;11.284;2023-02-28T08:29:07;11.95;;;9.68;;
67508;SDS011;54354;44.724;11.284;2023-02-28T08:31:33;13.00;;;9.15;;
67508;SDS011;54354;44.724;11.284;2023-02-28T08:34:04;14.57;;;8.93;;
67508;SDS011;54354;44.724;11.284;2023-02-28T08:36:33;14.43;;;9.90;;
67508;SDS011;54354;44.724;11.284;2023-02-28T08:38:59;15.63;;;10.13;;
67508;SDS011;54354;44.724;11.284;2023-02-28T08:41:24;15.95;;;9.38;;
67508;SDS011;54354;44.724;11.284;2023-02-28T08:43:51;14.45;;;9.10;;
67508;SDS011;54354;44.724;11.284;2023-02-28T08:46:16;13.32;;;8.88;;
67508;SDS011;54354;44.724;11.284;2023-02-28T08:48:42;14.55;;;9.43;;
67508;SDS011;54354;44.724;11.284;2023-02-28T08:51:10;12.98;;;9.88;;
67508;SDS011;54354;44.724;11.284;2023-02-28T08:53:46;15.80;;;9.55;;
67508;SDS011;54354;44.724;11.284;2023-02-28T08:56:15;14.18;;;8.85;;
67508;SDS011;54354;44.724;11.284;2023-02-28T08:58:44;16.13;;;9.35;;
67508;SDS011;54354;44.724;11.284;2023-02-28T09:01:15;14.07;;;8.82;;
67508;SDS011;54354;44.724;11.284;2023-02-28T09:03:44;16.35;;;9.13;;
67508;SDS011;54354;44.724;11.284;2023-02-28T09:06:11;15.10;;;8.30;;
67508;SDS011;54354;44.724;11.284;2023-02-28T09:08:37;14.38;;;8.55;;
67508;SDS011;54354;44.724;11.284;2023-02-28T09:11:05;12.30;;;9.13;;
67508;SDS011;54354;44.724;11.284;2023-02-28T09:13:30;13.20;;;8.82;;
67508;SDS011;54354;44.724;11.284;2023-02-28T09:15:58;12.60;;;8.93;;
67508;SDS011;54354;44.724;11.284;2023-02-28T09:18:25;11.20;;;8.48;;
67508;SDS011;54354;44.724;11.284;2023-02-28T09:20:51;15.05;;;9.18;;
67508;SDS011;54354;44.724;11.284;2023-02-28T09:23:17;10.82;;;9.02;;
67508;SDS011;54354;44.724;11.284;2023-02-28T09:25:52;13.25;;;9.30;;
67508;SDS011;54354;44.724;11.284;2023-02-28T09:28:19;12.85;;;9.10;;
67508;SDS011;54354;44.724;11.284;2023-02-28T09:30:46;10.02;;;7.63;;
67508;SDS011;54354;44.724;11.284;2023-02-28T09:33:14;13.95;;;8.88;;
67508;SDS011;54354;44.724;11.284;2023-02-28T09:35:41;11.77;;;8.68;;
67508;SDS011;54354;44.724;11.284;2023-02-28T09:38:08;11.20;;;8.80;;
67508;SDS011;54354;44.724;11.284;2023-02-28T09:40:39;14.45;;;8.55;;
67508;SDS011;54354;44.724;11.284;2023-02-28T09:43:16;13.43;;;8.27;;
67508;SDS011;54354;44.724;11.284;2023-02-28T09:45:48;11.57;;;8.45;;
67508;SDS011;54354;44.724;11.284;2023-02-28T09:48:19;13.10;;;8.40;;
67508;SDS011;54354;44.724;11.284;2023-02-28T09:51:00;14.52;;;9.10;;
67508;SDS011;54354;44.724;11.284;2023-02-28T09:53:33;14.43;;;8.82;;
67508;SDS011;54354;44.724;11.284;2023-02-28T09:58:50;22.88;;;10.20;;
67508;SDS011;54354;44.724;11.284;2023-02-28T10:06:55;13.15;;;8.27;;
67508;SDS011;54354;44.724;11.284;2023-02-28T10:09:26;12.93;;;9.02;;
67508;SDS011;54354;44.724;11.284;2023-02-28T10:11:56;9.57;;;7.93;;
67508;SDS011;54354;44.724;11.284;2023-02-28T10:14:26;12.90;;;8.68;;
67508;SDS011;54354;44.724;11.284;2023-02-28T10:17:11;11.80;;;8.70;;
67508;SDS011;54354;44.724;11.284;2023-02-28T10:19:59;13.52;;;8.25;;
67508;SDS011;54354;44.724;11.284;2023-02-28T10:22:43;13.90;;;8.50;;
67508;SDS011;54354;44.724;11.284;2023-02-28T10:25:24;11.98;;;9.00;;
67508;SDS011;54354;44.724;11.284;2023-02-28T10:28:11;14.13;;;9.93;;
67508;SDS011;54354;44.724;11.284;2023-02-28T10:30:50;13.52;;;9.15;;
67508;SDS011;54354;44.724;11.284;2023-02-28T10:33:27;15.68;;;8.63;;
67508;SDS011;54354;44.724;11.284;2023-02-28T10:35:57;14.25;;;9.27;;
67508;SDS011;54354;44.724;11.284;2023-02-28T10:38:27;10.90;;;8.60;;
67508;SDS011;54354;44.724;11.284;2023-02-28T10:43:33;12.38;;;8.73;;
67508;SDS011;54354;44.724;11.284;2023-02-28T10:46:02;10.95;;;8.70;;
67508;SDS011;54354;44.724;11.284;2023-02-28T10:48:40;12.77;;;9.25;;
67508;SDS011;54354;44.724;11.284;2023-02-28T10:51:13;12.90;;;8.95;;
67508;SDS011;54354;44.724;11.284;2023-02-28T10:58:54;13.23;;;8.68;;
67508;SDS011;54354;44.724;11.284;2023-02-28T11:01:23;10.82;;;8.73;;
67508;SDS011;54354;44.724;11.284;2023-02-28T11:03:58;14.85;;;8.43;;
67508;SDS011;54354;44.724;11.284;2023-02-28T11:06:33;14.57;;;8.95;;
67508;SDS011;54354;44.724;11.284;2023-02-28T11:09:15;10.55;;;8.50;;
67508;SDS011;54354;44.724;11.284;2023-02-28T11:11:48;12.80;;;8.40;;
67508;SDS011;54354;44.724;11.284;2023-02-28T11:14:24;12.63;;;8.48;;
67508;SDS011;54354;44.724;11.284;2023-02-28T11:16:52;12.30;;;8.43;;
67508;SDS011;54354;44.724;11.284;2023-02-28T11:19:31;13.45;;;8.35;;
67508;SDS011;54354;44.724;11.284;2023-02-28T11:22:03;14.27;;;9.13;;
67508;SDS011;54354;44.724;11.284;2023-02-28T11:24:31;13.60;;;9.10;;
67508;SDS011;54354;44.724;11.284;2023-02-28T11:27:00;13.32;;;8.38;;
67508;SDS011;54354;44.724;11.284;2023-02-28T11:29:32;12.82;;;8.38;;
67508;SDS011;54354;44.724;11.284;2023-02-28T11:32:13;16.25;;;8.30;;
67508;SDS011;54354;44.724;11.284;2023-02-28T11:34:43;13.73;;;8.30;;
67508;SDS011;54354;44.724;11.284;2023-02-28T11:37:12;13.40;;;8.63;;
67508;SDS011;54354;44.724;11.284;2023-02-28T11:39:40;12.43;;;9.32;;
67508;SDS011;54354;44.724;11.284;2023-02-28T11:45:18;11.10;;;7.75;;
67508;SDS011;54354;44.724;11.284;2023-02-28T11:48:18;12.98;;;7.28;;
67508;SDS011;54354;44.724;11.284;2023-02-28T11:51:12;10.10;;;7.55;;
67508;SDS011;54354;44.724;11.284;2023-02-28T11:56:41;9.98;;;7.50;;
67508;SDS011;54354;44.724;11.284;2023-02-28T12:05:11;8.13;;;7.32;;
67508;SDS011;54354;44.724;11.284;2023-02-28T12:07:50;9.55;;;7.47;;
67508;SDS011;54354;44.724;11.284;2023-02-28T12:10:54;10.52;;;7.65;;
67508;SDS011;54354;44.724;11.284;2023-02-28T12:27:11;12.02;;;8.32;;
67508;SDS011;54354;44.724;11.284;2023-02-28T12:29:46;12.52;;;7.97;;
67508;SDS011;54354;44.724;11.284;2023-02-28T12:37:45;10.65;;;7.95;;
67508;SDS011;54354;44.724;11.284;2023-02-28T12:40:22;10.30;;;7.80;;
67508;SDS011;54354;44.724;11.284;2023-02-28T12:42:57;11.07;;;7.72;;
67508;SDS011;54354;44.724;11.284;2023-02-28T12:48:42;11.20;;;7.50;;
67508;SDS011;54354;44.724;11.284;2023-02-28T12:51:11;9.93;;;7.40;;
67508;SDS011;54354;44.724;11.284;2023-02-28T12:56:33;10.02;;;7.70;;
67508;SDS011;54354;44.724;11.284;2023-02-28T13:02:00;15.38;;;7.93;;
67508;SDS011;54354;44.724;11.284;2023-02-28T13:09:57;9.73;;;6.95;;
67508;SDS011;54354;44.724;11.284;2023-02-28T13:12:24;12.35;;;7.65;;
67508;SDS011;54354;44.724;11.284;2023-02-28T13:15:01;11.52;;;7.65;;
67508;SDS011;54354;44.724;11.284;2023-02-28T13:17:38;11.02;;;7.78;;
67508;SDS011;54354;44.724;11.284;2023-02-28T13:20:13;13.90;;;7.53;;
67508;SDS011;54354;44.724;11.284;2023-02-28T13:22:41;13.10;;;7.85;;
67508;SDS011;54354;44.724;11.284;2023-02-28T13:25:53;10.50;;;7.80;;
67508;SDS011;54354;44.724;11.284;2023-02-28T13:28:07;10.43;;;7.28;;
67508;SDS011;54354;44.724;11.284;2023-02-28T13:33:21;86.25;;;9.43;;
67508;SDS011;54354;44.724;11.284;2023-02-28T13:35:48;9.88;;;7.18;;
67508;SDS011;54354;44.724;11.284;2023-02-28T13:38:32;11.23;;;7.55;;
67508;SDS011;54354;44.724;11.284;2023-02-28T13:46:25;99.70;;;10.50;;
67508;SDS011;54354;44.724;11.284;2023-02-28T13:48:50;13.82;;;7.15;;
67508;SDS011;54354;44.724;11.284;2023-02-28T13:51:27;17.25;;;7.18;;
67508;SDS011;54354;44.724;11.284;2023-02-28T13:54:17;15.73;;;6.82;;
67508;SDS011;54354;44.724;11.284;2023-02-28T13:57:33;19.08;;;6.88;;
67508;SDS011;54354;44.724;11.284;2023-02-28T14:05:36;8.88;;;6.32;;
67508;SDS011;54354;44.724;11.284;2023-02-28T14:08:14;8.90;;;6.53;;
67508;SDS011;54354;44.724;11.284;2023-02-28T14:11:02;8.05;;;6.55;;
67508;SDS011;54354;44.724;11.284;2023-02-28T14:16:10;13.73;;;7.28;;
67508;SDS011;54354;44.724;11.284;2023-02-28T14:18:51;12.65;;;7.20;;
67508;SDS011;54354;44.724;11.284;2023-02-28T14:21:26;12.57;;;7.00;;
67508;SDS011;54354;44.724;11.284;2023-02-28T14:32:31;10.65;;;5.95;;
67508;SDS011;54354;44.724;11.284;2023-02-28T14:37:51;9.20;;;5.53;;
67508;SDS011;54354;44.724;11.284;2023-02-28T14:40:23;11.88;;;6.00;;
67508;SDS011;54354;44.724;11.284;2023-02-28T14:42:55;12.70;;;5.65;;
67508;SDS011;54354;44.724;11.284;2023-02-28T14:45:22;11.82;;;6.05;;
67508;SDS011;54354;44.724;11.284;2023-02-28T14:47:51;8.55;;;5.72;;
67508;SDS011;54354;44.724;11.284;2023-02-28T14:50:18;12.07;;;5.43;;
67508;SDS011;54354;44.724;11.284;2023-02-28T14:52:46;15.77;;;6.25;;
67508;SDS011;54354;44.724;11.284;2023-02-28T14:55:16;10.02;;;6.25;;
67508;SDS011;54354;44.724;11.284;2023-02-28T14:57:54;7.88;;;5.22;;
67508;SDS011;54354;44.724;11.284;2023-02-28T15:02:59;11.02;;;5.78;;
67508;SDS011;54354;44.724;11.284;2023-02-28T15:08:03;8.85;;;5.63;;
67508;SDS011;54354;44.724;11.284;2023-02-28T15:10:54;9.68;;;5.93;;
67508;SDS011;54354;44.724;11.284;2023-02-28T15:13:22;7.70;;;5.55;;
67508;SDS011;54354;44.724;11.284;2023-02-28T15:15:53;16.65;;;5.63;;
67508;SDS011;54354;44.724;11.284;2023-02-28T15:20:57;10.27;;;4.97;;
67508;SDS011;54354;44.724;11.284;2023-02-28T15:23:28;9.45;;;5.18;;
67508;SDS011;54354;44.724;11.284;2023-02-28T15:25:55;12.80;;;5.50;;
67508;SDS011;54354;44.724;11.284;2023-02-28T15:28:21;10.02;;;5.00;;
67508;SDS011;54354;44.724;11.284;2023-02-28T15:30:53;10.18;;;5.43;;
67508;SDS011;54354;44.724;11.284;2023-02-28T15:33:24;9.57;;;5.13;;
67508;SDS011;54354;44.724;11.284;2023-02-28T15:36:03;8.18;;;5.15;;
67508;SDS011;54354;44.724;11.284;2023-02-28T15:38:33;10.55;;;4.78;;
67508;SDS011;54354;44.724;11.284;2023-02-28T15:41:00;6.22;;;4.50;;
67508;SDS011;54354;44.724;11.284;2023-02-28T15:43:32;8.00;;;5.05;;
67508;SDS011;54354;44.724;11.284;2023-02-28T15:46:03;8.27;;;4.90;;
67508;SDS011;54354;44.724;11.284;2023-02-28T15:53:35;9.55;;;5.30;;
67508;SDS011;54354;44.724;11.284;2023-02-28T15:56:05;7.13;;;4.90;;
67508;SDS011;54354;44.724;11.284;2023-02-28T15:58:39;11.93;;;5.43;;
67508;SDS011;54354;44.724;11.284;2023-02-28T16:01:15;11.43;;;5.75;;
67508;SDS011;54354;44.724;11.284;2023-02-28T16:03:45;8.30;;;5.15;;
67508;SDS011;54354;44.724;11.284;2023-02-28T16:08:42;9.80;;;5.55;;
67508;SDS011;54354;44.724;11.284;2023-02-28T16:11:08;8.25;;;4.68;;
67508;SDS011;54354;44.724;11.284;2023-02-28T16:13:36;9.60;;;5.40;;
67508;SDS011;54354;44.724;11.284;2023-02-28T16:16:02;9.57;;;4.90;;
67508;SDS011;54354;44.724;11.284;2023-02-28T16:18:28;6.95;;;4.63;;
67508;SDS011;54354;44.724;11.284;2023-02-28T16:20:53;9.00;;;4.95;;
67508;SDS011;54354;44.724;11.284;2023-02-28T16:23:19;10.20;;;4.93;;
67508;SDS011;54354;44.724;11.284;2023-02-28T16:25:44;7.95;;;4.72;;
67508;SDS011;54354;44.724;11.284;2023-02-28T16:28:25;8.40;;;4.78;;
67508;SDS011;54354;44.724;11.284;2023-02-28T16:30:57;7.32;;;4.78;;
67508;SDS011;54354;44.724;11.284;2023-02-28T16:33:25;8.40;;;5.22;;
67508;SDS011;54354;44.724;11.284;2023-02-28T16:35:51;10.20;;;4.90;;
67508;SDS011;54354;44.724;11.284;2023-02-28T16:38:17;9.32;;;5.00;;
67508;SDS011;54354;44.724;11.284;2023-02-28T16:40:42;10.13;;;5.32;;
67508;SDS011;54354;44.724;11.284;2023-02-28T16:43:10;9.55;;;5.00;;
67508;SDS011;54354;44.724;11.284;2023-02-28T16:45:41;8.00;;;5.10;;
67508;SDS011;54354;44.724;11.284;2023-02-28T16:48:08;8.70;;;5.40;;
67508;SDS011;54354;44.724;11.284;2023-02-28T18:09:00;25.88;;;21.17;;
67508;SDS011;54354;44.724;11.284;2023-02-28T18:11:25;25.40;;;21.13;;
67508;SDS011;54354;44.724;11.284;2023-02-28T18:14:06;27.52;;;22.35;;
67508;SDS011;54354;44.724;11.284;2023-02-28T18:16:31;28.73;;;22.08;;
67508;SDS011;54354;44.724;11.284;2023-02-28T18:18:57;35.38;;;22.63;;
67508;SDS011;54354;44.724;11.284;2023-02-28T18:21:22;29.17;;;24.13;;
67508;SDS011;54354;44.724;11.284;2023-02-28T18:23:48;27.83;;;23.75;;
67508;SDS011;54354;44.724;11.284;2023-02-28T18:26:15;30.67;;;25.00;;